createdAt,value
2018-06-27T00:01:14.269Z,2.17
2018-06-27T00:03:42.864Z,2.80
2018-06-27T00:06:11.480Z,2.43
2018-06-27T00:08:40.093Z,2.57
2018-06-27T00:11:08.680Z,2.77
2018-06-27T00:13:37.474Z,2.50
2018-06-27T00:16:06.041Z,2.50
2018-06-27T00:18:34.712Z,2.23
2018-06-27T00:21:03.420Z,2.57
2018-06-27T00:23:32.119Z,2.10
2018-06-27T00:26:00.668Z,2.23
2018-06-27T00:28:29.202Z,2.60
2018-06-27T00:30:57.809Z,2.80
2018-06-27T00:33:26.328Z,1.93
2018-06-27T00:35:56.148Z,2.73
2018-06-27T00:38:24.769Z,2.40
2018-06-27T00:40:53.370Z,2.87
2018-06-27T00:43:21.976Z,2.93
2018-06-27T00:45:50.644Z,2.20
2018-06-27T00:48:19.257Z,2.47
2018-06-27T00:50:47.857Z,2.80
2018-06-27T00:53:16.432Z,2.60
2018-06-27T00:55:45.074Z,2.20
2018-06-27T00:58:13.632Z,1.87
2018-06-27T01:00:42.364Z,2.80
2018-06-27T01:03:10.920Z,2.30
2018-06-27T01:05:39.529Z,2.17
2018-06-27T01:08:08.124Z,2.40
2018-06-27T01:10:36.723Z,2.60
2018-06-27T01:13:05.424Z,2.70
2018-06-27T01:15:34.076Z,2.97
2018-06-27T01:18:02.770Z,2.43
2018-06-27T01:20:31.412Z,2.80
2018-06-27T01:22:59.988Z,2.63
2018-06-27T01:25:28.613Z,2.47
2018-06-27T01:27:57.169Z,3.70
2018-06-27T01:30:25.705Z,3.07
2018-06-27T01:32:54.306Z,2.90
2018-06-27T01:35:22.851Z,2.10
2018-06-27T01:37:51.433Z,3.40
2018-06-27T01:40:19.981Z,2.67
2018-06-27T01:42:48.589Z,2.53
2018-06-27T01:45:17.268Z,3.20
2018-06-27T01:47:45.984Z,2.90
2018-06-27T01:50:14.566Z,3.23
2018-06-27T01:52:43.171Z,2.77
2018-06-27T01:55:11.736Z,2.83
2018-06-27T01:57:40.376Z,2.40
2018-06-27T02:00:09.100Z,2.97
2018-06-27T02:02:37.856Z,3.60
2018-06-27T02:05:06.449Z,2.77
2018-06-27T02:07:35.020Z,2.67
2018-06-27T02:10:03.674Z,2.40
2018-06-27T02:12:32.256Z,3.13
2018-06-27T02:15:01.101Z,3.23
2018-06-27T02:17:29.667Z,3.00
2018-06-27T02:19:58.292Z,3.73
2018-06-27T02:22:26.858Z,3.33
2018-06-27T02:24:55.420Z,3.33
2018-06-27T02:27:24.075Z,2.93
2018-06-27T02:29:52.579Z,3.10
2018-06-27T02:32:21.360Z,3.70
2018-06-27T02:34:49.896Z,2.90
2018-06-27T02:37:18.496Z,3.17
2018-06-27T02:39:47.236Z,3.10
2018-06-27T02:42:15.825Z,2.30
2018-06-27T02:44:44.532Z,2.83
2018-06-27T02:47:13.138Z,3.10
2018-06-27T02:49:41.835Z,2.57
2018-06-27T02:52:10.453Z,2.70
2018-06-27T02:54:39.072Z,2.83
2018-06-27T02:57:07.696Z,3.03
2018-06-27T02:59:36.301Z,3.10
2018-06-27T03:02:04.919Z,2.50
2018-06-27T03:04:33.576Z,3.60
2018-06-27T03:07:02.129Z,2.90
2018-06-27T03:09:30.788Z,3.07
2018-06-27T03:11:59.333Z,3.00
2018-06-27T03:14:27.868Z,2.90
2018-06-27T03:16:56.411Z,3.20
2018-06-27T03:19:25.069Z,3.23
2018-06-27T03:21:53.611Z,2.73
2018-06-27T03:24:22.204Z,3.60
2018-06-27T03:26:50.821Z,2.60
2018-06-27T03:29:19.976Z,3.93
2018-06-27T03:31:48.500Z,3.67
2018-06-27T03:34:17.269Z,4.27
2018-06-27T03:36:45.844Z,3.10
2018-06-27T03:39:14.360Z,2.80
2018-06-27T03:41:42.932Z,3.23
2018-06-27T03:44:11.540Z,3.53
2018-06-27T03:46:40.107Z,3.20
2018-06-27T03:49:08.712Z,2.80
2018-06-27T03:51:37.344Z,3.43
2018-06-27T03:54:05.940Z,3.17
2018-06-27T03:56:34.612Z,3.37
2018-06-27T03:59:03.265Z,4.67
2018-06-27T04:01:31.748Z,3.30
2018-06-27T04:04:00.288Z,3.57
2018-06-27T04:06:28.897Z,3.20
2018-06-27T04:08:57.476Z,2.90
2018-06-27T04:11:26.034Z,3.93
2018-06-27T04:13:54.556Z,3.27
2018-06-27T04:16:23.164Z,3.60
2018-06-27T04:18:51.844Z,3.00
2018-06-27T04:21:20.441Z,3.70
2018-06-27T04:23:48.972Z,3.60
2018-06-27T04:26:17.540Z,3.60
2018-06-27T04:28:46.524Z,3.77
2018-06-27T04:31:15.024Z,5.20
2018-06-27T04:33:43.628Z,3.77
2018-06-27T04:36:12.320Z,4.30
2018-06-27T04:38:40.927Z,4.83
2018-06-27T04:41:09.505Z,4.60
2018-06-27T04:43:38.029Z,5.20
2018-06-27T04:46:06.631Z,4.50
2018-06-27T04:48:35.208Z,4.30
2018-06-27T04:51:03.825Z,3.77
2018-06-27T04:53:32.432Z,3.67
2018-06-27T04:56:01.089Z,4.20
2018-06-27T04:58:29.701Z,4.10
2018-06-27T05:00:58.326Z,3.63
2018-06-27T05:03:26.947Z,5.33
2018-06-27T05:05:55.548Z,5.27
2018-06-27T05:08:24.100Z,4.77
2018-06-27T05:10:52.700Z,5.37
2018-06-27T05:13:21.287Z,5.37
2018-06-27T05:15:49.941Z,5.37
2018-06-27T05:18:18.602Z,6.50
2018-06-27T05:20:47.202Z,6.50
2018-06-27T05:23:15.745Z,6.43
2018-06-27T05:25:44.292Z,6.27
2018-06-27T05:28:12.915Z,6.67
2018-06-27T05:30:41.558Z,6.23
2018-06-27T05:33:10.184Z,8.30
2018-06-27T05:35:38.736Z,9.20
2018-06-27T05:38:07.416Z,7.33
2018-06-27T05:40:36.036Z,7.87
2018-06-27T05:43:04.888Z,8.70
2018-06-27T05:45:33.512Z,8.93
2018-06-27T05:48:02.180Z,8.33
2018-06-27T05:50:30.705Z,7.90
2018-06-27T05:52:59.389Z,7.40
2018-06-27T05:55:27.940Z,8.77
2018-06-27T05:57:56.556Z,9.07
2018-06-27T06:00:25.171Z,9.83
2018-06-27T06:02:53.924Z,8.20
2018-06-27T06:05:22.459Z,8.77
2018-06-27T06:07:51.104Z,8.17
2018-06-27T06:10:19.700Z,8.67
2018-06-27T06:12:48.275Z,9.20
2018-06-27T06:15:16.961Z,8.97
2018-06-27T06:17:45.576Z,8.50
2018-06-27T06:20:14.112Z,8.57
2018-06-27T06:22:42.708Z,7.60
2018-06-27T06:25:11.366Z,7.57
2018-06-27T06:27:40.018Z,7.47
2018-06-27T06:30:08.623Z,7.83
2018-06-27T06:32:37.185Z,7.40
2018-06-27T06:35:06.228Z,7.27
2018-06-27T06:37:34.848Z,7.40
2018-06-27T06:40:03.537Z,7.67
2018-06-27T06:42:32.089Z,6.47
2018-06-27T06:45:00.781Z,7.30
2018-06-27T06:47:29.516Z,7.50
2018-06-27T06:49:58.028Z,7.10
2018-06-27T06:52:26.720Z,6.43
2018-06-27T06:54:55.217Z,8.27
2018-06-27T06:57:23.864Z,6.40
2018-06-27T06:59:52.480Z,6.50
2018-06-27T07:02:21.033Z,6.57
2018-06-27T07:04:49.722Z,6.57
2018-06-27T07:07:18.348Z,7.27
2018-06-27T07:09:46.968Z,6.37
2018-06-27T07:12:15.548Z,5.40
2018-06-27T07:14:44.216Z,5.43
2018-06-27T07:17:12.772Z,6.80
2018-06-27T07:19:41.284Z,5.80
2018-06-27T07:22:10.008Z,5.40
2018-06-27T07:24:38.641Z,6.10
2018-06-27T07:27:07.713Z,5.40
2018-06-27T07:29:36.357Z,6.40
2018-06-27T07:32:04.940Z,6.20
2018-06-27T07:34:33.561Z,7.23
2018-06-27T07:37:02.209Z,4.30
2018-06-27T07:39:30.824Z,5.20
2018-06-27T07:41:59.414Z,5.40
2018-06-27T07:44:28.083Z,5.53
2018-06-27T07:46:56.653Z,3.73
2018-06-27T07:49:25.206Z,4.70
2018-06-27T07:51:53.754Z,4.70
2018-06-27T07:54:22.324Z,3.97
2018-06-27T07:56:51.055Z,3.63
2018-06-27T07:59:19.568Z,5.00
2018-06-27T08:01:48.216Z,3.90
2018-06-27T08:04:16.750Z,3.93
2018-06-27T08:06:46.417Z,3.70
2018-06-27T08:09:15.163Z,4.30
2018-06-27T08:11:44.220Z,3.77
2018-06-27T08:14:12.820Z,3.70
2018-06-27T08:16:41.404Z,4.30
2018-06-27T08:19:10.244Z,4.97
2018-06-27T08:21:38.984Z,5.70
2018-06-27T08:24:07.585Z,4.87
2018-06-27T08:26:36.201Z,5.40
2018-06-27T08:29:04.896Z,4.47
2018-06-27T08:31:33.533Z,4.67
2018-06-27T08:34:02.073Z,4.60
2018-06-27T08:36:31.126Z,4.00
2018-06-27T08:38:59.694Z,4.70
2018-06-27T08:41:28.284Z,4.47
2018-06-27T08:43:56.884Z,3.80
2018-06-27T08:46:25.448Z,4.20
2018-06-27T08:48:53.964Z,4.90
2018-06-27T08:51:22.605Z,5.10
2018-06-27T08:53:51.420Z,5.10
2018-06-27T08:56:19.968Z,3.60
2018-06-27T08:58:48.565Z,4.67
2018-06-27T09:01:17.196Z,4.00
2018-06-27T09:03:46.184Z,4.50
2018-06-27T09:06:14.781Z,4.67
2018-06-27T09:08:43.345Z,3.67
2018-06-27T09:11:12.089Z,3.50
2018-06-27T09:13:40.616Z,2.83
2018-06-27T09:16:09.326Z,2.00
2018-06-27T09:18:37.959Z,2.40
2018-06-27T09:21:06.825Z,2.00
2018-06-27T09:23:35.353Z,2.60
2018-06-27T09:26:03.932Z,1.93
2018-06-27T09:28:32.554Z,1.90
2018-06-27T09:31:01.115Z,1.70
2018-06-27T09:33:29.661Z,2.50
2018-06-27T09:35:58.240Z,3.10
2018-06-27T09:38:26.792Z,2.67
2018-06-27T09:40:55.421Z,2.23
2018-06-27T09:43:23.990Z,2.23
2018-06-27T09:45:52.632Z,2.77
2018-06-27T09:48:21.166Z,2.30
2018-06-27T09:50:49.708Z,2.33
2018-06-27T09:53:18.323Z,2.30
2018-06-27T09:55:47.002Z,2.20
2018-06-27T09:58:15.681Z,3.30
2018-06-27T10:00:44.308Z,2.20
2018-06-27T10:03:13.039Z,2.40
2018-06-27T10:05:41.668Z,2.30
2018-06-27T10:08:10.220Z,2.20
2018-06-27T10:10:38.900Z,2.03
2018-06-27T10:13:07.453Z,1.97
2018-06-27T10:15:36.140Z,2.03
2018-06-27T10:18:04.776Z,1.50
2018-06-27T10:20:33.379Z,2.47
2018-06-27T10:23:01.968Z,1.80
2018-06-27T10:25:30.536Z,1.93
2018-06-27T10:27:59.208Z,1.30
2018-06-27T10:30:27.714Z,1.60
2018-06-27T10:32:56.620Z,1.90
2018-06-27T10:35:25.173Z,1.67
2018-06-27T10:37:53.973Z,2.40
2018-06-27T10:40:22.541Z,1.63
2018-06-27T10:42:51.169Z,1.47
2018-06-27T10:45:19.750Z,1.40
2018-06-27T10:47:48.328Z,1.30
2018-06-27T10:50:16.969Z,1.23
2018-06-27T10:52:45.497Z,1.80
2018-06-27T10:55:19.300Z,1.70
2018-06-27T10:57:48.141Z,1.77
2018-06-27T11:00:16.769Z,1.50
2018-06-27T11:02:45.364Z,1.30
2018-06-27T11:05:13.961Z,1.40
2018-06-27T11:07:42.884Z,1.20
2018-06-27T11:10:11.456Z,0.90
2018-06-27T11:12:40.068Z,1.87
2018-06-27T11:15:09.195Z,1.40
2018-06-27T11:17:38.377Z,1.47
2018-06-27T11:20:06.960Z,1.80
2018-06-27T11:22:35.649Z,1.43
2018-06-27T11:25:04.289Z,1.40
2018-06-27T11:27:32.917Z,1.90
2018-06-27T11:30:01.613Z,1.47
2018-06-27T11:32:30.234Z,1.53
2018-06-27T11:34:58.864Z,1.00
2018-06-27T11:37:27.471Z,0.80
2018-06-27T11:39:56.013Z,1.37
2018-06-27T11:42:24.621Z,1.20
2018-06-27T11:44:53.260Z,1.00
2018-06-27T11:47:21.804Z,1.17
2018-06-27T11:49:50.415Z,0.83
2018-06-27T11:52:18.989Z,0.77
2018-06-27T11:54:51.780Z,0.90
2018-06-27T11:57:20.383Z,1.30
2018-06-27T11:59:49.004Z,1.27
2018-06-27T12:02:17.554Z,0.97
2018-06-27T12:04:46.282Z,1.10
2018-06-27T12:07:14.856Z,0.90
2018-06-27T12:09:43.525Z,0.70
2018-06-27T12:12:12.076Z,0.93
2018-06-27T12:14:40.649Z,1.03
2018-06-27T12:17:09.227Z,1.13
2018-06-27T12:19:37.840Z,0.90
2018-06-27T12:22:06.475Z,1.10
2018-06-27T12:24:35.097Z,1.53
2018-06-27T12:27:03.706Z,1.10
2018-06-27T12:29:32.241Z,1.00
2018-06-27T12:32:00.852Z,1.20
2018-06-27T12:34:29.857Z,1.47
2018-06-27T12:36:58.498Z,1.13
2018-06-27T12:39:27.584Z,1.27
2018-06-27T12:41:56.269Z,1.50
2018-06-27T12:44:24.885Z,1.47
2018-06-27T12:46:53.493Z,1.30
2018-06-27T12:49:22.028Z,1.20
2018-06-27T12:51:51.008Z,1.23
2018-06-27T12:54:19.718Z,1.70
2018-06-27T12:56:48.321Z,1.27
2018-06-27T12:59:17.168Z,1.67
2018-06-27T13:01:45.792Z,1.43
2018-06-27T13:04:14.438Z,1.43
2018-06-27T13:06:43.008Z,1.53
2018-06-27T13:09:12.098Z,2.73
2018-06-27T13:11:41.765Z,1.53
2018-06-27T13:14:10.376Z,1.90
2018-06-27T13:16:38.940Z,2.30
2018-06-27T13:19:08.175Z,1.47
2018-06-27T13:21:36.821Z,2.57
2018-06-27T13:24:05.457Z,2.10
2018-06-27T13:26:34.157Z,2.70
2018-06-27T13:29:02.745Z,1.83
2018-06-27T13:31:31.502Z,2.60
2018-06-27T13:34:00.041Z,2.00
2018-06-27T13:36:28.593Z,1.50
2018-06-27T13:38:57.148Z,1.60
2018-06-27T13:41:25.717Z,1.67
2018-06-27T13:43:54.365Z,1.47
2018-06-27T13:46:22.953Z,1.40
2018-06-27T13:48:51.660Z,1.00
2018-06-27T13:51:20.240Z,1.27
2018-06-27T13:53:48.821Z,1.43
2018-06-27T13:56:17.412Z,1.13
2018-06-27T13:58:46.004Z,1.60
2018-06-27T14:01:14.608Z,1.20
2018-06-27T14:03:43.184Z,1.30
2018-06-27T14:06:11.834Z,2.20
2018-06-27T14:08:40.373Z,1.73
2018-06-27T14:11:09.454Z,1.47
2018-06-27T14:13:38.151Z,1.50
2018-06-27T14:16:06.774Z,1.57
2018-06-27T14:18:35.449Z,1.90
2018-06-27T14:21:03.972Z,1.17
2018-06-27T14:23:32.609Z,1.60
2018-06-27T14:26:01.161Z,1.87
2018-06-27T14:28:29.932Z,1.80
2018-06-27T14:30:58.580Z,2.20
2018-06-27T14:33:27.172Z,1.67
2018-06-27T14:35:55.748Z,2.03
2018-06-27T14:38:24.426Z,1.50
2018-06-27T14:40:52.970Z,1.87
2018-06-27T14:43:21.512Z,2.10
2018-06-27T14:45:50.017Z,1.70
2018-06-27T14:48:18.780Z,2.20
2018-06-27T14:50:47.293Z,1.93
2018-06-27T14:53:15.869Z,2.00
2018-06-27T14:55:44.608Z,2.70
2018-06-27T14:58:13.144Z,3.20
2018-06-27T15:00:41.770Z,3.17
2018-06-27T15:03:10.384Z,3.10
2018-06-27T15:05:39.164Z,2.70
2018-06-27T15:08:08.281Z,3.10
2018-06-27T15:10:37.137Z,3.50
2018-06-27T15:13:05.755Z,3.23
2018-06-27T15:15:34.439Z,3.70
2018-06-27T15:18:03.044Z,2.73
2018-06-27T15:20:31.635Z,3.17
2018-06-27T15:23:00.237Z,3.37
2018-06-27T15:25:29.826Z,3.30
2018-06-27T15:27:58.441Z,3.47
2018-06-27T15:30:27.010Z,3.20
2018-06-27T15:32:55.552Z,3.07
2018-06-27T15:35:24.222Z,3.30
2018-06-27T15:37:52.753Z,3.23
2018-06-27T15:40:21.345Z,3.40
2018-06-27T15:42:49.953Z,2.97
2018-06-27T15:45:18.506Z,3.83
2018-06-27T15:47:47.226Z,2.83
2018-06-27T15:50:15.780Z,2.67
2018-06-27T15:52:44.414Z,2.90
2018-06-27T15:55:12.969Z,2.40
2018-06-27T15:57:41.559Z,2.90
2018-06-27T16:00:10.185Z,2.60
2018-06-27T16:02:38.798Z,2.13
2018-06-27T16:05:07.462Z,2.50
2018-06-27T16:07:36.076Z,2.63
2018-06-27T16:10:05.022Z,2.50
2018-06-27T16:12:33.694Z,2.70
2018-06-27T16:15:02.268Z,2.33
2018-06-27T16:17:30.953Z,2.40
2018-06-27T16:19:59.482Z,2.47
2018-06-27T16:22:28.127Z,2.53
2018-06-27T16:24:56.661Z,2.20
2018-06-27T16:27:25.388Z,2.37
2018-06-27T16:29:53.982Z,1.87
2018-06-27T16:32:22.501Z,1.50
2018-06-27T16:34:51.161Z,2.03
2018-06-27T16:37:20.053Z,1.43
2018-06-27T16:39:48.689Z,1.17
2018-06-27T16:42:17.492Z,1.53
2018-06-27T16:44:46.050Z,1.30
2018-06-27T16:47:14.773Z,0.93
2018-06-27T16:49:43.340Z,0.80
2018-06-27T16:52:12.007Z,0.80
2018-06-27T16:54:40.576Z,1.37
2018-06-27T16:57:09.278Z,0.90
2018-06-27T16:59:37.857Z,1.10
2018-06-27T17:02:06.864Z,0.70
2018-06-27T17:04:35.746Z,0.60
2018-06-27T17:07:04.419Z,1.00
2018-06-27T17:09:32.944Z,0.70
2018-06-27T17:12:01.577Z,0.90
2018-06-27T17:14:30.248Z,0.70
2018-06-27T17:16:58.828Z,0.80
2018-06-27T17:19:27.431Z,0.77
2018-06-27T17:21:56.001Z,0.80
2018-06-27T17:24:24.640Z,0.83
2018-06-27T17:26:53.185Z,1.20
2018-06-27T17:29:21.783Z,1.00
2018-06-27T17:31:50.404Z,1.00
2018-06-27T17:34:18.976Z,1.40
2018-06-27T17:36:48.129Z,0.70
2018-06-27T17:39:16.689Z,0.70
2018-06-27T17:41:45.416Z,0.93
2018-06-27T17:44:13.928Z,0.70
2018-06-27T17:46:42.520Z,0.83
2018-06-27T17:49:11.104Z,1.00
2018-06-27T17:51:39.853Z,0.77
2018-06-27T17:54:08.503Z,1.00
2018-06-27T17:56:37.204Z,0.90
2018-06-27T17:59:05.920Z,0.90
2018-06-27T18:01:34.533Z,1.30
2018-06-27T18:04:03.233Z,0.87
2018-06-27T18:06:31.877Z,0.60
2018-06-27T18:09:00.512Z,0.90
2018-06-27T18:11:29.200Z,0.70
2018-06-27T18:13:57.817Z,1.10
2018-06-27T18:16:26.364Z,1.20
2018-06-27T18:18:55.460Z,1.17
2018-06-27T18:21:24.089Z,1.07
2018-06-27T18:23:52.765Z,1.00
2018-06-27T18:26:21.425Z,0.93
2018-06-27T18:28:50.045Z,1.10
2018-06-27T18:31:18.709Z,1.50
2018-06-27T18:33:47.392Z,1.10
2018-06-27T18:36:16.177Z,3.60
2018-06-27T18:38:44.812Z,1.90
2018-06-27T18:41:13.461Z,1.90
2018-06-27T18:43:41.977Z,1.60
2018-06-27T18:46:10.588Z,1.80
2018-06-27T18:48:39.202Z,1.90
2018-06-27T18:51:07.856Z,1.67
2018-06-27T18:53:36.637Z,1.90
2018-06-27T18:56:05.414Z,1.70
2018-06-27T18:58:34.077Z,1.60
2018-06-27T19:01:02.717Z,2.63
2018-06-27T19:03:31.368Z,1.70
2018-06-27T19:06:00.159Z,1.77
2018-06-27T19:08:28.846Z,2.13
2018-06-27T19:10:57.418Z,1.80
2018-06-27T19:13:26.008Z,2.13
2018-06-27T19:15:54.605Z,2.00
2018-06-27T19:18:23.241Z,1.80
2018-06-27T19:20:52.048Z,2.37
2018-06-27T19:23:20.608Z,1.63
2018-06-27T19:25:49.408Z,1.73
2018-06-27T19:28:18.056Z,2.57
2018-06-27T19:30:46.616Z,2.17
2018-06-27T19:33:15.209Z,1.83
2018-06-27T19:35:43.792Z,2.00
2018-06-27T19:38:12.412Z,1.77
2018-06-27T19:40:41.231Z,1.53
2018-06-27T19:43:10.145Z,2.33
2018-06-27T19:45:39.032Z,1.87
2018-06-27T19:48:07.637Z,1.60
2018-06-27T19:50:36.156Z,1.70
2018-06-27T19:53:04.808Z,2.27
2018-06-27T19:55:33.844Z,2.00
2018-06-27T19:58:02.539Z,1.50
2018-06-27T20:00:31.068Z,1.90
2018-06-27T20:02:59.691Z,1.33
2018-06-27T20:05:28.200Z,1.80
2018-06-27T20:07:56.940Z,1.60
2018-06-27T20:10:25.457Z,1.80
2018-06-27T20:12:54.068Z,1.60
2018-06-27T20:15:22.583Z,1.53
2018-06-27T20:17:51.113Z,1.43
2018-06-27T20:20:19.749Z,1.23
2018-06-27T20:22:48.365Z,1.80
2018-06-27T20:25:16.920Z,1.50
2018-06-27T20:27:45.545Z,1.33
2018-06-27T20:30:14.100Z,2.00
2018-06-27T20:32:42.764Z,1.90
2018-06-27T20:35:11.416Z,1.67
2018-06-27T20:37:40.017Z,2.00
2018-06-27T20:40:08.678Z,1.43
2018-06-27T20:42:37.320Z,1.57
2018-06-27T20:45:05.977Z,1.70
2018-06-27T20:47:34.555Z,1.20
2018-06-27T20:50:03.248Z,2.10
2018-06-27T20:52:31.820Z,1.40
2018-06-27T20:55:00.405Z,1.80
2018-06-27T20:57:29.009Z,1.17
2018-06-27T20:59:59.641Z,1.47
2018-06-27T21:02:28.268Z,1.70
2018-06-27T21:04:56.830Z,1.30
2018-06-27T21:07:25.502Z,1.57
2018-06-27T21:09:54.107Z,1.00
2018-06-27T21:12:22.841Z,1.30
2018-06-27T21:14:51.545Z,1.50
2018-06-27T21:17:20.101Z,1.37
2018-06-27T21:19:49.002Z,1.43
2018-06-27T21:22:17.625Z,1.40
2018-06-27T21:24:46.633Z,1.50
2018-06-27T21:27:15.228Z,1.40
2018-06-27T21:29:43.769Z,1.30
2018-06-27T21:32:12.653Z,0.97
2018-06-27T21:34:41.192Z,1.37
2018-06-27T21:37:09.776Z,1.13
2018-06-27T21:39:38.328Z,1.23
2018-06-27T21:42:06.892Z,1.30
2018-06-27T21:44:35.856Z,1.57
2018-06-27T21:47:04.434Z,1.10
2018-06-27T21:49:33.078Z,1.30
2018-06-27T21:52:01.725Z,1.80
2018-06-27T21:54:30.313Z,1.47
2018-06-27T21:56:59.022Z,1.30
2018-06-27T21:59:27.680Z,1.13
2018-06-27T22:01:56.312Z,1.43
2018-06-27T22:04:24.957Z,1.17
2018-06-27T22:06:53.573Z,1.40
2018-06-27T22:09:22.413Z,1.53
2018-06-27T22:11:51.009Z,1.30
2018-06-27T22:14:19.580Z,0.93
2018-06-27T22:16:48.175Z,1.00
2018-06-27T22:19:16.761Z,1.53
2018-06-27T22:21:45.565Z,1.37
2018-06-27T22:24:14.217Z,2.10
2018-06-27T22:26:42.888Z,1.50
2018-06-27T22:29:11.516Z,1.30
2018-06-27T22:31:40.140Z,1.30
2018-06-27T22:34:08.832Z,1.23
2018-06-27T22:36:37.456Z,1.23
2018-06-27T22:39:09.056Z,1.33
2018-06-27T22:41:37.672Z,1.37
2018-06-27T22:44:06.404Z,1.27
2018-06-27T22:46:35.549Z,1.17
2018-06-27T22:49:04.331Z,1.80
2018-06-27T22:51:33.089Z,1.17
2018-06-27T22:54:01.760Z,1.43
2018-06-27T22:56:30.292Z,1.43
2018-06-27T22:58:58.953Z,1.33
2018-06-27T23:01:27.477Z,1.27
2018-06-27T23:03:56.471Z,1.27
2018-06-27T23:06:25.088Z,1.60
2018-06-27T23:08:53.648Z,1.13
2018-06-27T23:11:22.244Z,1.70
2018-06-27T23:13:50.892Z,1.43
2018-06-27T23:16:19.952Z,1.40
2018-06-27T23:18:48.519Z,1.80
2018-06-27T23:21:17.053Z,1.40
2018-06-27T23:23:45.643Z,1.60
2018-06-27T23:26:14.200Z,1.50
2018-06-27T23:28:42.897Z,1.60
2018-06-27T23:31:11.476Z,1.80
2018-06-27T23:33:40.077Z,1.30
2018-06-27T23:36:08.681Z,1.40
2018-06-27T23:38:37.298Z,0.90
2018-06-27T23:41:06.017Z,1.30
2018-06-27T23:43:34.562Z,1.07
2018-06-27T23:46:03.169Z,1.23
2018-06-27T23:48:31.901Z,1.50
2018-06-27T23:51:00.561Z,1.00
2018-06-27T23:53:29.404Z,1.10
2018-06-27T23:55:57.940Z,0.70
2018-06-27T23:58:26.536Z,1.40
